Terminal Aerodrome Forecast
Issued by NWS Wilmington, OH

Home | Current Version | Previous Version | Text Only | Print | Product List | Glossary On
Versions: 1 2 3 4 5 6 7 8 9 10 11 12 13 14 15 16
000
FTUS41 KILN 191620 AAB
TAFILN
TAF AMD
KILN 191620Z 1916/2012 14005KT P6SM VCTS OVC070CB
      TEMPO 1916/1917 5SM -TSRA BR OVC040CB
     FM191700 21007KT P6SM VCSH OVC060
     FM200200 16004KT P6SM BKN090
     FM200700 17004KT 5SM BR BKN100=

USA.gov is the U.S. government's official web portal to all federal, state and local government web resources and services.